Time;durP1;ratioP1;P1;durP2;ratioP2;P2;SDS_P1;SDS_P2;PMS_P1;PMS_P2;Temp;Humidity;BMP_temperature;BMP_pressure;BME280_temperature;BME280_humidity;BME280_pressure;Samples;Min_cycle;Max_cycle;Signal;HPM_P1;HPM_P2
2021/11/10 06:06:41;;;;;;;17.73;7.43;;;5.70;77.90;;;;;;6048960;23;20022;31
2021/11/10 06:09:07;;;;;;;14.82;8.85;;;;;;;;;;4921926;29;20573;-95
2021/11/10 06:27:07;;;;;;;18.85;8.88;;;;;;;;;;5757571;23;25076;-91
2021/11/10 06:29:33;;;;;;;19.77;7.72;;;5.70;91.00;;;;;;4921410;29;20118;-89
2021/11/10 06:31:59;;;;;;;17.75;7.07;;;;;;;;;;4934357;29;20099;-91
2021/11/10 06:34:24;;;;;;;22.17;7.60;;;5.60;95.50;;;;;;4933777;29;20071;-91
2021/11/10 06:36:51;;;;;;;13.93;5.13;;;;;;;;;;4933800;29;20844;-90
2021/11/10 06:39:17;;;;;;;14.77;5.72;;;;;;;;;;4934720;29;20032;-91
2021/11/10 06:41:43;;;;;;;17.63;5.95;;;;;;;;;;4933498;29;20055;-89
2021/11/10 06:44:09;;;;;;;15.77;6.28;;;5.30;95.70;;;;;;4929116;29;20031;-91
2021/11/10 06:46:35;;;;;;;9.10;4.70;;;;;;;;;;4928113;29;20028;-90
2021/11/10 06:49:01;;;;;;;13.68;6.65;;;5.60;95.40;;;;;;4930406;29;20036;-91
2021/11/10 06:51:27;;;;;;;15.45;5.28;;;;;;;;;;4936449;29;20035;-91
2021/11/10 06:53:52;;;;;;;18.15;7.07;;;6.10;94.50;;;;;;4936878;29;20036;-91
2021/11/10 06:56:18;;;;;;;12.43;5.93;;;;;;;;;;4935432;29;20051;-90
2021/11/10 06:58:45;;;;;;;13.55;6.10;;;;;;;;;;4933631;29;20031;-89
2021/11/10 07:01:11;;;;;;;21.45;8.70;;;;;;;;;;4936175;29;20042;-93
2021/11/10 07:03:36;;;;;;;19.85;6.78;;;;;;;;;;4935613;29;20050;-90
2021/11/10 07:06:03;;;;;;;18.13;4.57;;;;;;;;;;4936306;29;20027;-93
2021/11/10 07:08:28;;;;;;;18.55;5.38;;;6.00;92.60;;;;;;4936253;29;20075;-91
2021/11/10 07:10:54;;;;;;;11.75;5.72;;;;;;;;;;4936030;29;20028;-90
2021/11/10 07:13:21;;;;;;;15.07;5.05;;;5.90;92.80;;;;;;4938643;29;20042;-88
2021/11/10 07:15:47;;;;;;;11.52;5.95;;;6.20;91.30;;;;;;5022569;23;20074;-96
2021/11/10 07:18:13;;;;;;;13.57;5.30;;;;;;;;;;4946190;29;20032;-94
2021/11/10 07:20:39;;;;;;;13.40;6.95;;;;;;;;;;4953603;29;20595;-95
2021/11/10 07:23:04;;;;;;;12.82;5.55;;;6.50;94.00;;;;;;4938763;29;20036;-94
2021/11/10 07:25:30;;;;;;;13.63;6.00;;;;;;;;;;4954473;29;20050;-93
2021/11/10 07:27:56;;;;;;;10.75;6.55;;;;;;;;;;4946317;29;20046;-95
2021/11/10 07:30:23;;;;;;;12.88;7.60;;;;;;;;;;4938174;28;20205;-93
2021/11/10 07:32:49;;;;;;;10.98;5.53;;;6.60;93.40;;;;;;4950247;29;20023;-93
2021/11/10 07:35:15;;;;;;;11.25;5.93;;;;;;;;;;4936573;29;20897;-93
2021/11/10 07:37:42;;;;;;;16.08;7.97;;;;;;;;;;4953439;29;20034;-94
2021/11/10 07:40:09;;;;;;;19.13;10.40;;;6.90;74.00;;;;;;4938430;29;20019;-93
2021/11/10 07:42:36;;;;;;;24.80;9.20;;;;;;;;;;4938129;29;20087;-92
2021/11/10 07:45:23;;;;;;;22.55;10.02;;;;;;;;;;4955119;28;20073;-93
2021/11/10 07:47:52;;;;;;;14.40;8.50;;;7.30;92.90;;;;;;4955191;28;20024;-94
2021/11/10 07:50:21;;;;;;;12.60;8.25;;;7.70;92.80;;;;;;4937367;29;20167;-95
2021/11/10 07:52:47;;;;;;;12.75;5.13;;;7.50;92.00;;;;;;4934981;29;20036;-95
2021/11/10 07:55:13;;;;;;;13.95;6.47;;;7.50;80.60;;;;;;4960861;28;20031;-95
2021/11/10 07:57:39;;;;;;;18.00;7.03;;;7.90;92.70;;;;;;4954677;29;20061;-94
2021/11/10 08:00:09;;;;;;;15.05;6.05;;;7.90;72.30;;;;;;4955485;28;20031;-95
2021/11/10 08:02:35;;;;;;;22.00;6.13;;;8.80;83.80;;;;;;4956485;29;20058;-95
2021/11/10 08:05:01;;;;;;;19.77;8.45;;;;;;;;;;4954831;29;20031;-96
2021/11/10 08:07:26;;;;;;;13.15;5.85;;;10.00;77.40;;;;;;4956023;28;20046;-96
2021/11/10 08:09:52;;;;;;;11.85;6.03;;;;;;;;;;4956723;29;20023;-96
2021/11/10 08:12:18;;;;;;;17.10;8.52;;;;;;;;;;4938390;29;20077;-96
2021/11/10 08:14:45;;;;;;;12.20;5.18;;;;;;;;;;4958646;29;20075;-96
2021/11/10 08:17:11;;;;;;;11.50;6.18;;;;;;;;;;4978796;28;20023;-96
2021/11/10 08:19:37;;;;;;;16.95;7.05;;;;;;;;;;4979734;28;20031;-96
2021/11/10 08:22:03;;;;;;;17.98;6.35;;;14.70;76.30;;;;;;4977045;29;20031;-96
2021/11/10 08:24:29;;;;;;;13.63;5.93;;;14.70;74.00;;;;;;4976629;29;20028;-96
2021/11/10 09:08:26;;;;;;;13.50;5.22;;;;;;;;;;5844560;23;20090;-91
2021/11/10 09:10:53;;;;;;;11.48;5.57;;;;;;;;;;4933160;29;20035;-91
2021/11/10 09:13:19;;;;;;;10.35;6.43;;;16.50;46.40;;;;;;4932685;29;20500;-92
2021/11/10 09:15:45;;;;;;;8.97;5.40;;;;;;;;;;4927822;29;20102;-91
2021/11/10 09:18:12;;;;;;;11.68;6.05;;;;;;;;;;4920688;29;20031;-90
2021/11/10 09:20:39;;;;;;;9.85;5.50;;;16.20;48.60;;;;;;4917824;29;20032;-93
2021/11/10 09:23:07;;;;;;;15.35;5.78;;;17.70;49.20;;;;;;4934516;29;20050;-90
2021/11/10 09:25:35;;;;;;;9.15;5.15;;;15.70;49.50;;;;;;4932339;29;20166;-92
2021/11/10 09:28:04;;;;;;;14.73;5.82;;;15.70;49.50;;;;;;4928074;29;20028;-91
2021/11/10 09:33:07;;;;;;;19.13;6.90;;;15.30;51.30;;;;;;5836371;23;20044;-89
2021/11/10 09:35:34;;;;;;;14.77;5.25;;;14.90;73.60;;;;;;4932890;29;20647;-92
2021/11/10 09:38:00;;;;;;;10.00;5.07;;;;;;;;;;4947442;29;20048;-90
2021/11/10 09:40:30;;;;;;;13.93;6.32;;;14.70;53.10;;;;;;4935218;29;20031;-87
2021/11/10 09:42:57;;;;;;;9.13;4.90;;;14.30;54.00;;;;;;4931786;29;20047;-88
2021/11/10 09:45:24;;;;;;;16.98;6.38;;;;;;;;;;4910795;29;20030;-91
2021/11/10 09:47:50;;;;;;;8.55;5.53;;;;;;;;;;4929515;29;20036;-87
2021/11/10 09:50:24;;;;;;;9.60;5.25;;;14.20;55.60;;;;;;4951215;29;20024;-90
2021/11/10 09:52:50;;;;;;;12.32;6.35;;;13.90;56.70;;;;;;4936535;29;20035;-95
2021/11/10 09:55:19;;;;;;;11.98;5.32;;;13.80;79.50;;;;;;4939701;29;20086;-95
2021/11/10 09:57:48;;;;;;;11.63;6.25;;;13.50;58.20;;;;;;4926397;29;20409;-95
2021/11/10 10:00:16;;;;;;;14.25;7.40;;;;;;;;;;4941922;29;20027;-96
2021/11/10 10:02:48;;;;;;;16.40;6.38;;;13.50;59.60;;;;;;4941234;29;20044;-95
2021/11/10 10:05:15;;;;;;;14.02;5.45;;;13.60;60.10;;;;;;4923902;29;20039;-88
2021/11/10 10:07:42;;;;;;;;;;;13.90;59.90;;;;;;4936227;29;20046;-88
2021/11/10 10:10:08;;;;;;;10.13;4.95;;;;;;;;;;4937937;29;19914;-92
2021/11/10 10:12:34;;;;;;;12.38;5.97;;;;;;;;;;4929154;29;20036;-92
2021/11/10 10:15:00;;;;;;;9.82;4.78;;;;;;;;;;4927461;29;20054;-92
2021/11/10 10:17:41;;;;;;;9.68;6.10;;;15.00;57.50;;;;;;4955423;29;20031;-90
2021/11/10 10:22:48;;;;;;;8.25;5.10;;;15.40;56.30;;;;;;5137078;23;20079;-90
2021/11/10 10:25:14;;;;;;;9.50;4.82;;;;;;;;;;4929972;29;20080;-89
2021/11/10 10:27:55;;;;;;;6.75;5.72;;;15.70;54.60;;;;;;4926812;29;20028;-90
2021/11/10 10:30:38;;;;;;;9.70;6.38;;;15.70;54.10;;;;;;4936733;29;20019;-90
2021/11/10 10:33:06;;;;;;;7.82;4.47;;;15.50;76.30;;;;;;4941159;29;20143;-95
2021/11/10 10:35:43;;;;;;;10.63;4.75;;;15.10;55.90;;;;;;4939930;29;20028;-95
2021/11/10 10:38:15;;;;;;;7.80;4.23;;;14.60;78.90;;;;;;4940387;29;20032;-94
2021/11/10 10:40:42;;;;;;;16.90;5.97;;;14.90;56.90;;;;;;4918195;29;20015;-88
2021/11/10 10:43:08;;;;;;;;;;;14.80;57.10;;;;;;4937319;29;20051;-93
2021/11/10 10:45:36;;;;;;;13.40;5.05;;;14.70;58.00;;;;;;4934722;29;19910;-81
2021/11/10 10:48:05;;;;;;;10.63;5.30;;;14.70;58.40;;;;;;4941308;29;20028;-94
2021/11/10 10:50:46;;;;;;;9.82;4.85;;;14.80;80.70;;;;;;4921988;29;20032;-92
2021/11/10 10:53:14;;;;;;;7.80;4.88;;;14.70;57.90;;;;;;4929900;29;21043;-94
2021/11/10 10:55:44;;;;;;;10.18;4.30;;;14.90;57.90;;;;;;4934634;29;20046;-93
2021/11/10 10:58:13;;;;;;;6.93;3.88;;;14.80;57.30;;;;;;4914549;29;20032;-94
2021/11/10 11:00:39;;;;;;;9.95;4.85;;;;;;;;;;4945982;29;20055;-92
2021/11/10 11:03:17;;;;;;;7.65;4.03;;;15.00;79.30;;;;;;4942976;29;20065;-96
2021/11/10 11:05:43;;;;;;;20.33;7.20;;;;;;;;;;4960928;29;20024;-96
2021/11/10 11:08:29;;;;;;;15.77;8.77;;;14.50;81.40;;;;;;4960957;29;20038;-95
2021/11/10 11:10:56;;;;;;;16.00;7.32;;;14.30;60.30;;;;;;4959568;29;20027;-95
2021/11/10 11:13:42;;;;;;;19.13;8.13;;;14.00;60.70;;;;;;4961916;29;20067;-96
2021/11/10 11:16:09;;;;;;;16.90;8.00;;;;;;;;;;4961671;29;20032;-96
2021/11/10 11:18:35;;;;;;;15.27;8.68;;;;;;;;;;4958853;29;20024;-94
2021/11/10 11:21:23;;;;;;;18.10;7.28;;;13.50;63.50;;;;;;4960805;28;20016;-95
2021/11/10 11:23:48;;;;;;;;;;;13.50;63.30;;;;;;4959778;29;20055;-96
2021/11/10 11:26:30;;;;;;;13.63;6.70;;;13.40;86.50;;;;;;4961467;29;19942;-95
2021/11/10 11:28:58;;;;;;;19.73;8.35;;;13.30;64.00;;;;;;4947191;29;20051;-95
2021/11/10 11:31:33;;;;;;;14.13;7.45;;;13.30;88.20;;;;;;4954795;29;20015;-95
2021/11/10 11:34:00;;;;;;;19.05;8.85;;;13.20;64.30;;;;;;4942720;29;20012;-96
2021/11/10 11:36:53;;;;;;;18.52;7.80;;;13.20;64.40;;;;;;4961820;29;20024;-95
2021/11/10 12:05:18;;;;;;;15.40;6.57;;;;;;;;;;5489965;23;20070;-96
2021/11/10 12:07:52;;;;;;;16.70;8.02;;;;;;;;;;4945168;29;20015;-96
2021/11/10 12:10:21;;;;;;;21.98;8.73;;;;;;;;;;4961091;29;20039;-96
2021/11/10 12:12:48;;;;;;;17.10;9.00;;;;;;;;;;4945188;29;20035;-96
2021/11/10 12:15:14;;;;;;;19.65;8.93;;;;;;;;;;4960922;29;20007;-96
2021/11/10 12:18:05;;;;;;;13.70;7.97;;;13.40;65.10;;;;;;4960542;29;20019;-96
2021/11/10 12:20:38;;;;;;;17.20;8.70;;;;;;;;;;4943423;29;20031;-96
2021/11/10 12:23:05;;;;;;;15.23;8.52;;;;;;;;;;4955841;29;20024;-94
2021/11/10 12:25:31;;;;;;;26.40;9.63;;;;;;;;;;4954087;29;20032;-96
2021/11/10 12:27:57;;;;;;;27.75;8.48;;;;;;;;;;4951703;29;20026;-96
2021/11/10 12:30:25;;;;;;;21.67;10.70;;;;;;;;;;4949410;29;20012;-95
2021/11/10 12:32:52;;;;;;;;;;;13.10;66.40;;;;;;4949222;29;20031;-96
2021/11/10 12:35:20;;;;;;;20.70;9.73;;;;;;;;;;4949798;29;19906;-96
2021/11/10 12:37:49;;;;;;;20.17;8.95;;;;;;;;;;4948298;29;20030;-95
2021/11/10 12:40:19;;;;;;;18.65;7.07;;;;;;;;;;4940091;29;20034;-96
2021/11/10 12:42:54;;;;;;;20.40;7.70;;;;;;;;;;4919425;29;20395;-96
2021/11/10 12:45:53;;;;;;;15.82;7.55;;;13.60;67.70;;;;;;4768012;29;20570;-91
2021/11/10 12:48:32;;;;;;;18.27;6.90;;;13.30;80.80;;;;;;4834940;29;20074;-90
2021/11/10 12:51:19;;;;;;;21.67;8.27;;;12.90;87.70;;;;;;4933494;29;20099;-92
2021/11/10 12:53:47;;;;;;;15.13;8.43;;;13.10;82.20;;;;;;4933546;29;20068;-90
2021/11/10 12:56:14;;;;;;;11.98;7.22;;;;;;;;;;4946297;29;20445;-90
2021/11/10 12:58:40;;;;;;;19.42;9.45;;;;;;;;;;4913933;29;20040;-90
2021/11/10 13:01:09;;;;;;;20.42;7.25;;;13.00;65.70;;;;;;4936112;29;20438;-90
2021/11/10 13:03:36;;;;;;;22.92;10.07;;;13.00;65.80;;;;;;4936584;29;20038;-95
2021/11/10 14:37:00;;;;;;;19.45;10.20;;;;;;;;;;5981753;23;20085;-94
2021/11/10 15:08:08;;;;;;;23.92;9.07;;;;;;;;;;5243046;23;20055;-89
2021/11/10 15:10:34;;;;;;;20.55;8.95;;;11.60;91.80;;;;;;4936907;29;20032;-93
2021/11/10 15:13:14;;;;;;;26.35;9.68;;;11.60;71.70;;;;;;4928138;29;20047;-91
2021/11/10 15:15:43;;;;;;;25.65;10.43;;;11.50;71.90;;;;;;4926745;29;20341;-90
2021/11/10 15:18:17;;;;;;;25.20;10.13;;;11.40;71.80;;;;;;4937221;29;20089;-94
2021/11/10 15:20:44;;;;;;;20.65;9.50;;;11.40;72.10;;;;;;4903279;29;20024;-88
2021/11/10 15:23:14;;;;;;;20.80;8.80;;;11.30;72.30;;;;;;4905525;29;20095;-90
2021/11/10 15:25:46;;;;;;;21.10;8.30;;;11.30;92.50;;;;;;4933653;29;20511;-90
2021/11/10 15:28:18;;;;;;;19.98;7.50;;;11.20;72.60;;;;;;4934367;29;20031;-91
2021/11/10 15:30:45;;;;;;;17.83;8.23;;;;;;;;;;4935712;29;20067;-92
2021/11/10 15:33:13;;;;;;;19.38;7.93;;;10.90;74.20;;;;;;4932592;29;20520;-88
2021/11/10 15:35:42;;;;;;;20.65;8.80;;;11.10;73.80;;;;;;4934781;29;20496;-93
2021/11/10 15:38:12;;;;;;;19.88;7.70;;;11.00;74.20;;;;;;4937702;29;20071;-88
2021/11/10 15:40:39;;;;;;;24.13;8.70;;;10.80;74.30;;;;;;4933189;29;20059;-85
2021/11/10 15:43:05;;;;;;;17.98;9.88;;;;;;;;;;4928880;29;20042;-94
2021/11/10 15:45:31;;;;;;;22.45;8.45;;;;;;;;;;4925955;29;20035;-94
2021/11/10 15:47:57;;;;;;;24.02;11.57;;;10.70;84.20;;;;;;4935769;29;20040;-90
2021/11/10 15:50:23;;;;;;;32.50;11.23;;;;;;;;;;4930860;29;20031;-92
2021/11/10 15:52:49;;;;;;;28.33;10.73;;;;;;;;;;4933736;29;20031;-89
2021/11/10 15:55:17;;;;;;;26.27;9.38;;;10.60;74.80;;;;;;4934660;29;20028;-90
2021/11/10 15:57:43;;;;;;;18.10;9.20;;;;;;;;;;4935767;29;20505;-88
2021/11/10 16:00:12;;;;;;;33.72;10.50;;;10.60;93.50;;;;;;4936019;29;20477;-92
2021/11/10 16:02:38;;;;;;;30.63;12.10;;;;;;;;;;4921293;29;20114;-95
2021/11/10 16:05:07;;;;;;;25.25;9.88;;;10.40;88.20;;;;;;4922456;29;20036;-88
2021/11/10 16:07:33;;;;;;;18.65;11.57;;;;;;;;;;4930898;29;20051;-89
2021/11/10 16:10:02;;;;;;;21.30;10.48;;;;;;;;;;4934598;29;20493;-92
2021/11/10 16:12:29;;;;;;;19.70;8.40;;;;;;;;;;4935991;29;20058;-93
2021/11/10 16:14:54;;;;;;;25.40;10.93;;;;;;;;;;4933791;29;20035;-88
2021/11/10 16:17:22;;;;;;;26.20;11.07;;;10.30;75.30;;;;;;4929067;29;20094;-86
2021/11/10 16:19:49;;;;;;;18.33;9.05;;;;;;;;;;4930830;29;20493;-88
2021/11/10 16:22:15;;;;;;;25.83;11.70;;;;;;;;;;4932055;29;20103;-88
2021/11/10 16:24:41;;;;;;;23.17;11.25;;;;;;;;;;4932724;29;20668;-87
2021/11/10 16:27:12;;;;;;;26.63;10.70;;;;;;;;;;4931194;29;20035;-86
2021/11/10 16:29:47;;;;;;;21.58;10.82;;;10.10;75.30;;;;;;4931689;29;20511;-88
2021/11/10 16:32:26;;;;;;;33.88;10.20;;;;;;;;;;4932074;29;20032;-87
2021/11/10 16:34:55;;;;;;;24.70;9.95;;;9.90;75.70;;;;;;4927268;29;20051;-88
2021/11/10 16:37:21;;;;;;;20.33;10.07;;;;;;;;;;4913983;29;20040;-87
2021/11/10 16:39:47;;;;;;;26.88;10.10;;;;;;;;;;4930466;29;20499;-87
2021/11/10 16:42:14;;;;;;;29.90;10.02;;;;;;;;;;4931816;29;20036;-88
2021/11/10 16:44:39;;;;;;;26.10;9.55;;;;;;;;;;4931754;29;20043;-87
2021/11/10 16:47:06;;;;;;;22.10;11.25;;;;;;;;;;4931281;29;20955;-86
2021/11/10 16:49:33;;;;;;;26.03;9.67;;;;;;;;;;4914147;29;20588;-88
2021/11/10 16:51:59;;;;;;;26.88;10.82;;;;;;;;;;4927696;29;20031;-87
2021/11/10 16:54:26;;;;;;;25.80;10.07;;;;;;;;;;4920772;29;20032;-87
2021/11/10 16:56:56;;;;;;;28.58;10.52;;;9.90;76.40;;;;;;4915763;29;20028;-87
2021/11/10 16:59:22;;;;;;;24.95;10.60;;;9.90;76.00;;;;;;4928032;29;20031;-87
2021/11/10 17:01:48;;;;;;;28.73;12.03;;;;;;;;;;4920808;29;20076;-88
2021/11/10 17:04:15;;;;;;;24.75;9.05;;;;;;;;;;4919554;29;20084;-87
2021/11/10 17:06:42;;;;;;;24.10;10.88;;;;;;;;;;4927243;29;20059;-86
2021/11/10 17:09:08;;;;;;;25.45;10.93;;;;;;;;;;4918171;29;20428;-88
2021/11/10 17:11:35;;;;;;;26.13;10.23;;;;;;;;;;4929300;29;20032;-88
2021/11/10 17:14:05;;;;;;;25.20;10.65;;;;;;;;;;4930088;29;20279;-87
2021/11/10 17:16:31;;;;;;;25.10;10.15;;;;;;;;;;4930294;29;20031;-87
2021/11/10 17:18:57;;;;;;;23.98;11.05;;;;;;;;;;4925793;29;20111;-88
2021/11/10 17:21:23;;;;;;;30.38;11.27;;;;;;;;;;4919609;29;20023;-87
2021/11/10 17:23:49;;;;;;;21.30;9.95;;;;;;;;;;4930539;29;20048;-87
2021/11/10 17:26:16;;;;;;;29.75;11.77;;;;;;;;;;4931364;29;20035;-88
2021/11/10 17:28:44;;;;;;;27.00;12.23;;;;;;;;;;4920786;29;20413;-87
2021/11/10 17:31:10;;;;;;;28.60;10.82;;;;;;;;;;4920579;29;20473;-87
2021/11/10 17:33:36;;;;;;;27.00;12.27;;;;;;;;;;4920540;29;20055;-87
2021/11/10 17:36:03;;;;;;;29.80;12.45;;;9.70;76.90;;;;;;4930902;29;20528;-90
2021/11/10 17:38:30;;;;;;;31.75;14.65;;;;;;;;;;4917174;29;20039;-88
2021/11/10 17:40:56;;;;;;;28.98;10.50;;;;;;;;;;4931304;29;20031;-87
2021/11/10 17:43:23;;;;;;;29.15;11.07;;;;;;;;;;4923205;29;20044;-87
2021/11/10 17:45:50;;;;;;;28.75;11.68;;;;;;;;;;4922932;29;20102;-87
2021/11/10 17:48:16;;;;;;;32.25;11.65;;;;;;;;;;4930419;29;20516;-87
2021/11/10 17:50:44;;;;;;;38.80;12.77;;;;;;;;;;4930399;29;20034;-88
2021/11/10 17:53:10;;;;;;;31.30;10.00;;;;;;;;;;4931579;29;20106;-86
2021/11/10 17:55:36;;;;;;;35.85;11.95;;;;;;;;;;4929798;29;20031;-87
2021/11/10 17:58:02;;;;;;;31.30;13.15;;;;;;;;;;4930198;29;20107;-87
2021/11/10 18:00:30;;;;;;;29.23;11.10;;;9.80;77.50;;;;;;4930876;29;20111;-87
2021/11/10 18:02:56;;;;;;;30.98;13.55;;;;;;;;;;4912808;29;20634;-88
2021/11/10 18:05:22;;;;;;;28.20;12.32;;;;;;;;;;4912711;29;20135;-88
2021/11/10 18:07:48;;;;;;;36.47;13.70;;;;;;;;;;4927812;29;20043;-87
2021/11/10 18:10:14;;;;;;;32.08;13.23;;;;;;;;;;4912873;29;20032;-86
2021/11/10 18:12:41;;;;;;;26.55;12.38;;;;;;;;;;4928896;29;20031;-86
2021/11/10 18:15:08;;;;;;;28.13;14.23;;;;;;;;;;4927501;29;20059;-86
2021/11/10 18:17:35;;;;;;;30.95;14.38;;;;;;;;;;4931064;29;20042;-87
2021/11/10 18:20:02;;;;;;;26.23;11.20;;;;;;;;;;4930497;29;20016;-87
2021/11/10 18:22:28;;;;;;;40.85;13.82;;;;;;;;;;4930873;29;20032;-87
2021/11/10 18:24:54;;;;;;;32.13;12.80;;;;;;;;;;4931182;29;20038;-86
2021/11/10 18:27:20;;;;;;;40.60;14.80;;;;;;;;;;4931868;29;20387;-88
2021/11/10 18:29:46;;;;;;;44.30;14.02;;;;;;;;;;4928895;29;20036;-88
2021/11/10 18:32:12;;;;;;;29.90;13.25;;;;;;;;;;4931441;29;20027;-87
2021/11/10 18:34:38;;;;;;;20.17;10.48;;;;;;;;;;4931536;29;20028;-88
2021/11/10 18:37:06;;;;;;;29.42;12.35;;;;;;;;;;4933803;29;20111;-86
2021/11/10 18:39:32;;;;;;;32.88;11.75;;;;;;;;;;4933775;29;20124;-88
2021/11/10 18:41:58;;;;;;;29.98;12.40;;;;;;;;;;4933723;29;20110;-86
2021/11/10 18:44:24;;;;;;;36.58;15.13;;;;;;;;;;4919840;29;20801;-88
2021/11/10 18:46:50;;;;;;;39.97;14.40;;;9.70;96.50;;;;;;4909786;29;20031;-88
2021/11/10 18:49:16;;;;;;;35.17;15.95;;;;;;;;;;4914536;29;20031;-87
2021/11/10 18:51:43;;;;;;;28.63;14.20;;;;;;;;;;4933776;29;20044;-86
2021/11/10 18:54:09;;;;;;;34.33;13.25;;;;;;;;;;4933538;29;20090;-87
2021/11/10 18:56:35;;;;;;;31.90;9.85;;;;;;;;;;4917573;29;20490;-86
2021/11/10 18:59:08;;;;;;;35.97;12.00;;;;;;;;;;4934014;29;20143;-86
2021/11/10 19:01:40;;;;;;;26.52;10.35;;;;;;;;;;4933312;29;20091;-87
2021/11/10 19:04:14;;;;;;;27.30;10.75;;;;;;;;;;4932673;29;20425;-88
2021/11/10 19:06:46;;;;;;;28.20;11.02;;;;;;;;;;4915271;29;20409;-88
2021/11/10 19:11:55;;;;;;;44.85;16.38;;;;;;;;;;4929317;29;20027;-87
2021/11/10 19:22:36;;;;;;;25.67;13.23;;;;;;;;;;4829701;29;20784;-88
2021/11/10 19:25:02;;;;;;;14.80;9.70;;;9.40;97.10;;;;;;4832479;29;20039;-88
2021/11/10 19:27:28;;;;;;;18.60;13.15;;;;;;;;;;4837221;29;20079;-88
2021/11/10 19:29:54;;;;;;;39.40;12.35;;;;;;;;;;4824031;29;20034;-87
2021/11/10 19:32:20;;;;;;;31.33;13.52;;;;;;;;;;4838945;29;20037;-90
2021/11/10 19:34:47;;;;;;;36.22;15.52;;;;;;;;;;4838610;29;20145;-87
2021/11/10 19:37:13;;;;;;;51.65;16.27;;;;;;;;;;4837411;29;20029;-88
2021/11/10 19:39:39;;;;;;;46.65;18.65;;;;;;;;;;4838558;29;20034;-87
2021/11/10 19:42:05;;;;;;;37.90;14.25;;;;;;;;;;4838239;29;20063;-87
2021/11/10 19:44:31;;;;;;;19.10;8.30;;;;;;;;;;4837972;29;20045;-87
2021/11/10 19:46:57;;;;;;;15.93;8.00;;;;;;;;;;4838050;29;20046;-87
2021/11/10 19:49:23;;;;;;;12.68;7.07;;;9.60;96.80;;;;;;4933238;29;20512;-88
2021/11/10 19:51:50;;;;;;;20.83;9.65;;;9.70;79.40;;;;;;4933597;29;20043;-88
2021/11/10 19:54:19;;;;;;;19.40;8.40;;;;;;;;;;4933393;29;20509;-87
2021/11/10 19:56:46;;;;;;;16.80;6.97;;;;;;;;;;4932238;29;20481;-88
2021/11/10 19:59:13;;;;;;;;;;;10.00;78.10;;;;;;4934951;29;20393;-88
2021/11/10 20:01:41;;;;;;;22.30;8.13;;;;;;;;;;4933843;29;19968;-88
2021/11/10 20:04:09;;;;;;;19.83;7.10;;;;;;;;;;4933360;29;20170;-88
2021/11/10 20:06:36;;;;;;;25.75;9.00;;;9.50;78.60;;;;;;4932971;29;20035;-89
2021/11/10 20:09:04;;;;;;;19.15;9.25;;;9.50;79.00;;;;;;4933533;29;20039;-87
2021/11/10 20:11:31;;;;;;;19.08;8.75;;;9.30;79.40;;;;;;4933619;29;20031;-87
2021/11/10 20:14:05;;;;;;;19.03;7.63;;;9.30;80.20;;;;;;4933782;29;20580;-87
2021/11/10 20:16:32;;;;;;;21.25;9.30;;;9.20;80.90;;;;;;4931488;29;20059;-87
2021/11/10 20:18:58;;;;;;;18.67;8.30;;;;;;;;;;4931615;29;20039;-88
2021/11/10 20:21:24;;;;;;;18.27;8.00;;;;;;;;;;4931904;29;20031;-88
2021/11/10 20:23:51;;;;;;;12.05;7.18;;;;;;;;;;4933473;29;20035;-86
2021/11/10 20:26:17;;;;;;;12.52;6.03;;;;;;;;;;4933940;29;20031;-88
2021/11/10 20:28:43;;;;;;;23.05;9.18;;;9.10;97.40;;;;;;4933212;29;20490;-86
2021/11/10 20:31:09;;;;;;;12.18;7.20;;;;;;;;;;4931504;29;20039;-87
2021/11/10 20:33:36;;;;;;;14.00;7.38;;;;;;;;;;4932660;29;20036;-87
2021/11/10 20:36:04;;;;;;;16.52;8.55;;;9.50;78.50;;;;;;4933123;29;20055;-86
2021/11/10 20:38:30;;;;;;;12.07;6.97;;;;;;;;;;4932564;29;20046;-89
2021/11/10 20:40:56;;;;;;;17.35;7.13;;;9.30;96.70;;;;;;4933790;29;20557;-88
2021/11/10 20:43:22;;;;;;;14.18;7.63;;;;;;;;;;4932226;29;20043;-87
2021/11/10 20:45:48;;;;;;;16.13;8.20;;;;;;;;;;4931681;29;20039;-88
2021/11/10 20:48:14;;;;;;;13.85;6.38;;;;;;;;;;4931988;29;20413;-88
2021/11/10 20:50:40;;;;;;;22.90;8.32;;;;;;;;;;4932549;29;20393;-87
2021/11/10 20:53:07;;;;;;;20.80;7.95;;;;;;;;;;4914769;29;20039;-88
2021/11/10 20:55:34;;;;;;;16.35;7.20;;;;;;;;;;4930498;29;20027;-87
2021/11/10 20:58:00;;;;;;;17.42;9.02;;;;;;;;;;4933146;29;20043;-88
2021/11/10 21:00:29;;;;;;;18.33;6.25;;;;;;;;;;4932809;29;20028;-87
2021/11/10 21:02:55;;;;;;;17.63;6.70;;;8.70;96.60;;;;;;4917464;29;20254;-87
2021/11/10 21:05:22;;;;;;;14.13;6.33;;;;;;;;;;4933684;29;20106;-87
2021/11/10 21:07:48;;;;;;;11.55;5.93;;;8.70;79.20;;;;;;4932423;29;20055;-87
2021/11/10 21:10:14;;;;;;;21.80;7.27;;;;;;;;;;4932637;29;20028;-88
2021/11/10 21:12:41;;;;;;;15.63;6.35;;;;;;;;;;4932072;29;20034;-87
2021/11/10 21:15:08;;;;;;;14.63;6.97;;;;;;;;;;4936055;29;20124;-88
2021/11/10 21:17:34;;;;;;;17.05;6.47;;;;;;;;;;4931791;29;20023;-89
2021/11/10 21:20:00;;;;;;;13.50;6.43;;;;;;;;;;4933146;29;20024;-88
2021/11/10 21:22:27;;;;;;;11.32;5.18;;;;;;;;;;4932228;29;20055;-87
2021/11/10 21:24:53;;;;;;;13.77;5.63;;;;;;;;;;4932486;29;20035;-89
2021/11/10 21:27:20;;;;;;;13.85;6.65;;;;;;;;;;4931932;29;20106;-88
2021/11/10 21:29:46;;;;;;;11.13;6.15;;;;;;;;;;4932011;29;20993;-87
2021/11/10 21:32:13;;;;;;;17.52;8.25;;;;;;;;;;4933013;29;20516;-88
2021/11/10 21:34:40;;;;;;;12.20;4.93;;;8.90;95.80;;;;;;4932296;29;20063;-87
2021/11/10 21:37:06;;;;;;;10.82;4.97;;;;;;;;;;4932101;29;20028;-87
2021/11/10 21:39:33;;;;;;;10.77;6.53;;;8.70;76.20;;;;;;4932146;29;20024;-87
2021/11/10 21:42:00;;;;;;;11.25;5.75;;;;;;;;;;4930662;29;20461;-88
2021/11/10 21:44:26;;;;;;;12.00;6.05;;;;;;;;;;4932790;29;20071;-87
2021/11/10 21:46:56;;;;;;;10.23;4.72;;;;;;;;;;4932041;29;20532;-87
2021/11/10 21:49:23;;;;;;;8.45;3.90;;;;;;;;;;4931103;29;20032;-87
2021/11/10 21:51:50;;;;;;;18.30;7.90;;;;;;;;;;4932325;29;20040;-86
2021/11/10 21:54:17;;;;;;;11.52;5.13;;;;;;;;;;4931980;29;20500;-87
2021/11/10 21:56:43;;;;;;;8.38;4.03;;;;;;;;;;4931755;29;20087;-87
2021/11/10 21:59:09;;;;;;;9.50;3.67;;;8.20;95.00;;;;;;4932717;29;20040;-87
2021/11/10 22:01:35;;;;;;;9.68;4.97;;;;;;;;;;4931972;29;20575;-87
2021/11/10 22:04:01;;;;;;;9.05;5.90;;;;;;;;;;4931581;29;20039;-87
2021/11/10 22:06:27;;;;;;;9.82;5.10;;;;;;;;;;4930218;29;20023;-90
2021/11/10 22:08:53;;;;;;;10.55;4.97;;;;;;;;;;4930997;29;20416;-87
2021/11/10 22:11:19;;;;;;;7.60;4.65;;;8.20;95.40;;;;;;4931704;29;20035;-88
2021/11/10 22:13:45;;;;;;;15.95;4.70;;;;;;;;;;4931298;29;20036;-87
2021/11/10 22:16:12;;;;;;;6.82;4.80;;;8.10;76.50;;;;;;4931248;29;20668;-87
2021/11/10 22:18:39;;;;;;;10.18;4.50;;;7.90;76.60;;;;;;4930892;29;20417;-87
2021/11/10 22:21:05;;;;;;;11.95;4.60;;;;;;;;;;4930627;29;20056;-87
2021/11/10 22:23:31;;;;;;;8.05;3.50;;;;;;;;;;4929162;29;20039;-87
2021/11/10 22:25:57;;;;;;;11.57;3.75;;;;;;;;;;4931246;29;20042;-88
2021/11/10 22:28:23;;;;;;;8.77;4.38;;;;;;;;;;4929255;29;20031;-88
2021/11/10 22:30:49;;;;;;;8.35;4.53;;;;;;;;;;4930669;29;20036;-87
2021/11/10 22:33:16;;;;;;;14.27;7.03;;;;;;;;;;4931150;29;20141;-87
2021/11/10 22:35:42;;;;;;;11.90;4.93;;;;;;;;;;4930519;29;20493;-87
2021/11/10 22:38:08;;;;;;;11.27;5.70;;;;;;;;;;4931439;29;20046;-88
2021/11/10 22:40:34;;;;;;;10.70;4.88;;;8.10;89.60;;;;;;4928623;29;20405;-88
2021/11/10 22:43:01;;;;;;;12.57;4.68;;;;;;;;;;4930324;29;20043;-88
2021/11/10 22:45:27;;;;;;;17.17;8.02;;;;;;;;;;4930086;29;20031;-88
2021/11/10 22:47:53;;;;;;;12.82;5.47;;;;;;;;;;4930147;29;20039;-87
2021/11/10 22:50:20;;;;;;;16.95;6.55;;;;;;;;;;4931052;29;20028;-87
2021/11/10 22:52:47;;;;;;;13.30;5.60;;;;;;;;;;4930572;29;20059;-87
2021/11/10 22:55:14;;;;;;;7.65;4.88;;;;;;;;;;4928986;29;20028;-87
2021/11/10 22:57:40;;;;;;;16.13;7.15;;;;;;;;;;4930313;29;20035;-87
2021/11/10 23:00:28;;;;;;;21.02;6.00;;;7.50;78.40;;;;;;4929825;29;20497;-87
2021/11/10 23:02:55;;;;;;;18.08;7.00;;;7.60;96.70;;;;;;4933047;29;20058;-86
2021/11/10 23:05:22;;;;;;;14.73;6.13;;;;;;;;;;4934677;29;20633;-87
2021/11/10 23:07:48;;;;;;;15.90;7.55;;;;;;;;;;4894633;29;1159173;-87
2021/11/10 23:10:15;;;;;;;12.85;5.97;;;;;;;;;;4934009;29;20031;-87
2021/11/10 23:12:41;;;;;;;14.35;6.63;;;;;;;;;;4934523;29;20028;-88
2021/11/10 23:15:08;;;;;;;15.95;8.00;;;;;;;;;;4933112;29;20023;-87
2021/11/10 23:17:34;;;;;;;23.10;8.20;;;;;;;;;;4934159;29;20032;-87
2021/11/10 23:20:01;;;;;;;13.93;8.00;;;;;;;;;;4917381;29;20042;-87
2021/11/10 23:22:27;;;;;;;19.27;8.73;;;;;;;;;;4933923;29;20139;-87
2021/11/10 23:24:54;;;;;;;10.75;5.35;;;;;;;;;;4936200;29;20038;-87
2021/11/10 23:27:21;;;;;;;21.23;6.32;;;;;;;;;;4934504;29;20395;-87
2021/11/10 23:29:47;;;;;;;37.33;8.73;;;;;;;;;;4934470;29;20032;-87
2021/11/10 23:32:13;;;;;;;14.95;4.82;;;;;;;;;;4935155;29;20040;-87
2021/11/10 23:34:42;;;;;;;16.25;6.38;;;7.50;95.70;;;;;;4929549;29;20016;-88